sensor_id;sensor_type;location;lat;lon;timestamp;pressure;altitude;pressure_sealevel;temperature;humidity
75039;BME280;63609;49.992;14.512;2024-02-14T00:00:51;98540.09;;;1.33;63.08
75039;BME280;63609;49.992;14.512;2024-02-14T00:03:19;98539.75;;;1.24;63.34
75039;BME280;63609;49.992;14.512;2024-02-14T00:05:47;98551.63;;;1.31;63.41
75039;BME280;63609;49.992;14.512;2024-02-14T00:08:14;98546.16;;;1.35;62.99
75039;BME280;63609;49.992;14.512;2024-02-14T00:10:41;98554.16;;;1.17;64.99
75039;BME280;63609;49.992;14.512;2024-02-14T00:13:10;98550.31;;;0.89;65.26
75039;BME280;63609;49.992;14.512;2024-02-14T00:15:37;98565.31;;;1.04;65.11
75039;BME280;63609;49.992;14.512;2024-02-14T00:18:04;98557.13;;;0.93;66.09
75039;BME280;63609;49.992;14.512;2024-02-14T00:20:31;98549.50;;;0.71;66.69
75039;BME280;63609;49.992;14.512;2024-02-14T00:22:59;98554.81;;;0.70;66.42
75039;BME280;63609;49.992;14.512;2024-02-14T00:25:26;98563.19;;;0.78;66.05
75039;BME280;63609;49.992;14.512;2024-02-14T00:27:52;98559.31;;;0.85;65.82
75039;BME280;63609;49.992;14.512;2024-02-14T00:30:20;98556.69;;;0.85;65.78
75039;BME280;63609;49.992;14.512;2024-02-14T00:32:50;98569.41;;;0.93;65.50
75039;BME280;63609;49.992;14.512;2024-02-14T00:35:18;98576.25;;;0.79;65.53
75039;BME280;63609;49.992;14.512;2024-02-14T00:37:45;98570.22;;;0.77;66.55
75039;BME280;63609;49.992;14.512;2024-02-14T00:40:12;98575.72;;;1.23;64.77
75039;BME280;63609;49.992;14.512;2024-02-14T00:42:39;98569.41;;;0.93;65.83
75039;BME280;63609;49.992;14.512;2024-02-14T00:45:06;98555.06;;;0.82;67.09
75039;BME280;63609;49.992;14.512;2024-02-14T00:47:36;98562.34;;;0.77;67.00
75039;BME280;63609;49.992;14.512;2024-02-14T00:50:04;98563.78;;;0.83;66.20
75039;BME280;63609;49.992;14.512;2024-02-14T00:52:31;98564.88;;;0.62;67.57
75039;BME280;63609;49.992;14.512;2024-02-14T00:54:57;98555.91;;;0.83;66.92
75039;BME280;63609;49.992;14.512;2024-02-14T00:57:25;98577.41;;;0.74;66.88
75039;BME280;63609;49.992;14.512;2024-02-14T00:59:55;98567.47;;;0.96;66.30
75039;BME280;63609;49.992;14.512;2024-02-14T01:03:42;98567.66;;;0.76;68.24
75039;BME280;63609;49.992;14.512;2024-02-14T01:06:09;98564.56;;;0.68;67.88
75039;BME280;63609;49.992;14.512;2024-02-14T01:08:36;98570.34;;;0.57;68.64
75039;BME280;63609;49.992;14.512;2024-02-14T01:11:04;98565.53;;;1.00;67.09
75039;BME280;63609;49.992;14.512;2024-02-14T01:13:31;98570.88;;;0.98;66.95
75039;BME280;63609;49.992;14.512;2024-02-14T01:15:58;98559.91;;;1.07;66.88
75039;BME280;63609;49.992;14.512;2024-02-14T01:18:25;98561.19;;;1.16;66.54
75039;BME280;63609;49.992;14.512;2024-02-14T01:20:52;98561.28;;;1.15;66.64
75039;BME280;63609;49.992;14.512;2024-02-14T01:23:20;98557.22;;;1.25;66.50
75039;BME280;63609;49.992;14.512;2024-02-14T01:25:47;98550.78;;;1.30;65.67
75039;BME280;63609;49.992;14.512;2024-02-14T01:28:14;98547.63;;;1.24;65.95
75039;BME280;63609;49.992;14.512;2024-02-14T01:30:40;98552.25;;;1.69;63.93
75039;BME280;63609;49.992;14.512;2024-02-14T01:33:07;98552.13;;;1.55;64.66
75039;BME280;63609;49.992;14.512;2024-02-14T01:35:34;98557.66;;;1.33;65.76
75039;BME280;63609;49.992;14.512;2024-02-14T01:38:01;98552.78;;;1.09;66.27
75039;BME280;63609;49.992;14.512;2024-02-14T01:40:29;98551.53;;;0.99;67.00
75039;BME280;63609;49.992;14.512;2024-02-14T01:42:56;98546.47;;;0.79;67.43
75039;BME280;63609;49.992;14.512;2024-02-14T01:45:22;98553.91;;;0.71;67.70
75039;BME280;63609;49.992;14.512;2024-02-14T01:47:50;98550.97;;;0.60;68.59
75039;BME280;63609;49.992;14.512;2024-02-14T01:50:17;98554.34;;;0.62;68.70
75039;BME280;63609;49.992;14.512;2024-02-14T01:52:45;98549.34;;;0.57;67.94
75039;BME280;63609;49.992;14.512;2024-02-14T01:55:12;98548.69;;;0.69;68.23
75039;BME280;63609;49.992;14.512;2024-02-14T01:57:39;98540.16;;;0.48;68.93
75039;BME280;63609;49.992;14.512;2024-02-14T02:00:06;98537.59;;;0.64;68.10
75039;BME280;63609;49.992;14.512;2024-02-14T02:02:42;98530.88;;;0.41;68.55
75039;BME280;63609;49.992;14.512;2024-02-14T02:05:15;98529.16;;;0.58;68.50
75039;BME280;63609;49.992;14.512;2024-02-14T02:07:43;98532.34;;;0.47;68.48
75039;BME280;63609;49.992;14.512;2024-02-14T02:10:10;98537.56;;;0.30;69.04
75039;BME280;63609;49.992;14.512;2024-02-14T02:12:38;98535.22;;;0.42;68.68
75039;BME280;63609;49.992;14.512;2024-02-14T02:15:08;98539.22;;;-0.04;70.66
75039;BME280;63609;49.992;14.512;2024-02-14T02:17:40;98540.53;;;0.05;70.47
75039;BME280;63609;49.992;14.512;2024-02-14T02:20:07;98531.09;;;0.19;69.96
75039;BME280;63609;49.992;14.512;2024-02-14T02:22:37;98531.09;;;0.37;70.25
75039;BME280;63609;49.992;14.512;2024-02-14T02:25:04;98531.94;;;0.55;69.38
75039;BME280;63609;49.992;14.512;2024-02-14T02:27:34;98532.44;;;0.45;69.06
75039;BME280;63609;49.992;14.512;2024-02-14T02:30:05;98535.34;;;0.57;69.11
75039;BME280;63609;49.992;14.512;2024-02-14T02:32:32;98535.19;;;0.60;69.21
75039;BME280;63609;49.992;14.512;2024-02-14T02:34:59;98534.66;;;0.70;69.00
75039;BME280;63609;49.992;14.512;2024-02-14T02:37:27;98534.34;;;0.76;68.78
75039;BME280;63609;49.992;14.512;2024-02-14T02:39:56;98531.66;;;0.78;68.79
75039;BME280;63609;49.992;14.512;2024-02-14T02:42:23;98527.75;;;0.85;68.11
75039;BME280;63609;49.992;14.512;2024-02-14T02:44:53;98522.00;;;0.44;69.55
75039;BME280;63609;49.992;14.512;2024-02-14T02:47:20;98526.84;;;0.69;69.17
75039;BME280;63609;49.992;14.512;2024-02-14T02:49:47;98524.22;;;0.69;69.08
75039;BME280;63609;49.992;14.512;2024-02-14T02:52:13;98520.75;;;0.51;69.00
75039;BME280;63609;49.992;14.512;2024-02-14T02:54:42;98525.53;;;0.77;68.67
75039;BME280;63609;49.992;14.512;2024-02-14T02:57:10;98521.06;;;0.79;68.46
75039;BME280;63609;49.992;14.512;2024-02-14T02:59:38;98528.38;;;0.90;68.26
75039;BME280;63609;49.992;14.512;2024-02-14T03:02:09;98525.41;;;0.96;67.38
75039;BME280;63609;49.992;14.512;2024-02-14T03:04:39;98536.28;;;0.73;68.99
75039;BME280;63609;49.992;14.512;2024-02-14T03:07:19;98537.13;;;0.73;68.50
75039;BME280;63609;49.992;14.512;2024-02-14T03:09:46;98540.06;;;0.85;68.80
75039;BME280;63609;49.992;14.512;2024-02-14T03:12:12;98552.25;;;0.68;69.50
75039;BME280;63609;49.992;14.512;2024-02-14T03:14:43;98543.53;;;0.85;68.72
75039;BME280;63609;49.992;14.512;2024-02-14T03:17:10;98541.22;;;0.79;68.41
75039;BME280;63609;49.992;14.512;2024-02-14T03:19:37;98531.97;;;0.72;68.67
75039;BME280;63609;49.992;14.512;2024-02-14T03:22:07;98543.69;;;0.82;67.98
75039;BME280;63609;49.992;14.512;2024-02-14T03:24:36;98547.72;;;0.72;68.83
75039;BME280;63609;49.992;14.512;2024-02-14T03:27:04;98539.38;;;0.64;69.00
75039;BME280;63609;49.992;14.512;2024-02-14T03:29:32;98537.59;;;0.64;69.11
75039;BME280;63609;49.992;14.512;2024-02-14T03:31:59;98544.31;;;0.53;69.33
75039;BME280;63609;49.992;14.512;2024-02-14T03:34:31;98535.03;;;0.80;68.34
75039;BME280;63609;49.992;14.512;2024-02-14T03:37:02;98539.19;;;0.67;68.95
75039;BME280;63609;49.992;14.512;2024-02-14T03:39:30;98535.66;;;0.68;68.91
75039;BME280;63609;49.992;14.512;2024-02-14T03:41:58;98535.19;;;0.77;69.34
75039;BME280;63609;49.992;14.512;2024-02-14T03:44:28;98537.91;;;0.58;69.93
75039;BME280;63609;49.992;14.512;2024-02-14T03:46:54;98539.75;;;0.56;69.73
75039;BME280;63609;49.992;14.512;2024-02-14T03:49:23;98539.03;;;0.87;68.78
75039;BME280;63609;49.992;14.512;2024-02-14T03:51:49;98534.84;;;1.00;68.24
75039;BME280;63609;49.992;14.512;2024-02-14T03:54:19;98538.41;;;0.99;68.04
75039;BME280;63609;49.992;14.512;2024-02-14T03:56:47;98541.75;;;0.86;68.07
75039;BME280;63609;49.992;14.512;2024-02-14T03:59:14;98531.56;;;0.62;69.00
75039;BME280;63609;49.992;14.512;2024-02-14T04:01:44;98529.34;;;0.72;68.74
75039;BME280;63609;49.992;14.512;2024-02-14T04:04:11;98531.16;;;0.70;68.48
75039;BME280;63609;49.992;14.512;2024-02-14T04:06:38;98534.25;;;0.61;68.99
75039;BME280;63609;49.992;14.512;2024-02-14T04:09:05;98528.63;;;0.68;68.19
75039;BME280;63609;49.992;14.512;2024-02-14T04:11:33;98531.94;;;0.89;67.83
75039;BME280;63609;49.992;14.512;2024-02-14T04:14:00;98535.25;;;0.93;67.23
75039;BME280;63609;49.992;14.512;2024-02-14T04:16:26;98524.19;;;0.86;67.48
75039;BME280;63609;49.992;14.512;2024-02-14T04:18:53;98532.50;;;0.78;68.01
75039;BME280;63609;49.992;14.512;2024-02-14T04:21:22;98530.09;;;0.57;69.96
75039;BME280;63609;49.992;14.512;2024-02-14T04:23:49;98526.31;;;0.45;69.64
75039;BME280;63609;49.992;14.512;2024-02-14T04:26:22;98527.31;;;0.42;70.69
75039;BME280;63609;49.992;14.512;2024-02-14T04:28:49;98521.22;;;0.59;69.71
75039;BME280;63609;49.992;14.512;2024-02-14T04:31:16;98512.16;;;0.65;69.24
75039;BME280;63609;49.992;14.512;2024-02-14T04:33:42;98519.59;;;0.74;69.76
75039;BME280;63609;49.992;14.512;2024-02-14T04:36:10;98511.47;;;0.61;70.09
75039;BME280;63609;49.992;14.512;2024-02-14T04:38:38;98512.94;;;0.67;69.81
75039;BME280;63609;49.992;14.512;2024-02-14T04:41:05;98508.91;;;0.77;69.18
75039;BME280;63609;49.992;14.512;2024-02-14T04:43:32;98515.59;;;0.49;70.13
75039;BME280;63609;49.992;14.512;2024-02-14T04:45:58;98518.75;;;0.56;70.27
75039;BME280;63609;49.992;14.512;2024-02-14T04:48:27;98516.13;;;0.73;70.20
75039;BME280;63609;49.992;14.512;2024-02-14T04:50:54;98512.31;;;0.79;69.77
75039;BME280;63609;49.992;14.512;2024-02-14T04:53:21;98517.25;;;0.68;69.79
75039;BME280;63609;49.992;14.512;2024-02-14T04:55:48;98518.59;;;0.76;69.57
75039;BME280;63609;49.992;14.512;2024-02-14T04:58:15;98518.28;;;0.98;68.05
75039;BME280;63609;49.992;14.512;2024-02-14T05:00:45;98517.06;;;1.05;68.00
75039;BME280;63609;49.992;14.512;2024-02-14T05:03:12;98519.63;;;1.07;68.23
75039;BME280;63609;49.992;14.512;2024-02-14T05:05:39;98513.13;;;0.97;68.73
75039;BME280;63609;49.992;14.512;2024-02-14T05:08:06;98515.91;;;0.94;68.82
75039;BME280;63609;49.992;14.512;2024-02-14T05:10:33;98517.16;;;0.69;69.40
75039;BME280;63609;49.992;14.512;2024-02-14T05:12:59;98521.22;;;0.59;69.80
75039;BME280;63609;49.992;14.512;2024-02-14T05:15:27;98521.31;;;1.08;69.33
75039;BME280;63609;49.992;14.512;2024-02-14T05:17:56;98520.47;;;0.90;68.76
75039;BME280;63609;49.992;14.512;2024-02-14T05:20:24;98518.59;;;0.76;69.16
75039;BME280;63609;49.992;14.512;2024-02-14T05:22:50;98520.66;;;0.70;69.26
75039;BME280;63609;49.992;14.512;2024-02-14T05:25:17;98523.91;;;0.75;69.30
75039;BME280;63609;49.992;14.512;2024-02-14T05:27:45;98525.41;;;0.96;68.82
75039;BME280;63609;49.992;14.512;2024-02-14T05:30:13;98520.00;;;0.99;68.56
75039;BME280;63609;49.992;14.512;2024-02-14T05:32:41;98530.31;;;0.87;68.74
75039;BME280;63609;49.992;14.512;2024-02-14T05:35:08;98519.03;;;0.67;69.44
75039;BME280;63609;49.992;14.512;2024-02-14T05:37:36;98521.13;;;0.78;69.39
75039;BME280;63609;49.992;14.512;2024-02-14T05:40:05;98527.34;;;0.93;69.01
75039;BME280;63609;49.992;14.512;2024-02-14T05:42:33;98519.44;;;1.10;68.18
75039;BME280;63609;49.992;14.512;2024-02-14T05:45:01;98525.06;;;1.20;67.70
75039;BME280;63609;49.992;14.512;2024-02-14T05:47:33;98522.53;;;1.18;68.16
75039;BME280;63609;49.992;14.512;2024-02-14T05:50:00;98519.44;;;1.10;68.16
75039;BME280;63609;49.992;14.512;2024-02-14T05:52:27;98525.72;;;1.07;68.33
75039;BME280;63609;49.992;14.512;2024-02-14T05:54:54;98528.72;;;1.17;67.63
75039;BME280;63609;49.992;14.512;2024-02-14T05:57:21;98525.03;;;1.04;67.94
75039;BME280;63609;49.992;14.512;2024-02-14T05:59:48;98523.03;;;0.92;68.67
75039;BME280;63609;49.992;14.512;2024-02-14T06:02:14;98532.84;;;0.88;69.11
75039;BME280;63609;49.992;14.512;2024-02-14T06:04:41;98532.28;;;0.99;68.69
75039;BME280;63609;49.992;14.512;2024-02-14T06:07:09;98534.81;;;0.85;69.34
75039;BME280;63609;49.992;14.512;2024-02-14T06:09:38;98537.09;;;0.91;68.60
75039;BME280;63609;49.992;14.512;2024-02-14T06:12:06;98531.53;;;0.97;69.16
75039;BME280;63609;49.992;14.512;2024-02-14T06:14:33;98521.66;;;0.67;69.37
75039;BME280;63609;49.992;14.512;2024-02-14T06:17:01;98534.34;;;0.76;68.74
75039;BME280;63609;49.992;14.512;2024-02-14T06:19:28;98533.09;;;0.84;68.74
75039;BME280;63609;49.992;14.512;2024-02-14T06:21:57;98525.81;;;0.89;69.38
75039;BME280;63609;49.992;14.512;2024-02-14T06:24:24;98533.06;;;1.01;68.13
75039;BME280;63609;49.992;14.512;2024-02-14T06:26:51;98539.13;;;1.03;68.08
75039;BME280;63609;49.992;14.512;2024-02-14T06:29:18;98531.22;;;1.03;68.15
75039;BME280;63609;49.992;14.512;2024-02-14T06:31:45;98541.78;;;1.01;68.35
75039;BME280;63609;49.992;14.512;2024-02-14T06:34:12;98534.69;;;1.36;66.95
75039;BME280;63609;49.992;14.512;2024-02-14T06:36:39;98538.41;;;1.32;66.87
75039;BME280;63609;49.992;14.512;2024-02-14T06:39:07;98546.34;;;1.15;68.02
75039;BME280;63609;49.992;14.512;2024-02-14T06:41:34;98546.78;;;1.23;67.84
75039;BME280;63609;49.992;14.512;2024-02-14T06:44:01;98542.38;;;1.24;68.19
75039;BME280;63609;49.992;14.512;2024-02-14T06:46:28;98545.44;;;1.32;67.84
75039;BME280;63609;49.992;14.512;2024-02-14T06:48:56;98541.78;;;1.34;67.72
75039;BME280;63609;49.992;14.512;2024-02-14T06:51:23;98542.38;;;1.41;67.61
75039;BME280;63609;49.992;14.512;2024-02-14T06:53:50;98547.38;;;1.61;66.83
75039;BME280;63609;49.992;14.512;2024-02-14T06:56:17;98548.56;;;1.56;67.44
75039;BME280;63609;49.992;14.512;2024-02-14T06:58:44;98550.94;;;1.60;66.89
75039;BME280;63609;49.992;14.512;2024-02-14T07:01:11;98552.69;;;1.77;66.30
75039;BME280;63609;49.992;14.512;2024-02-14T07:03:41;98540.63;;;2.04;65.42
75039;BME280;63609;49.992;14.512;2024-02-14T07:06:08;98545.03;;;1.88;66.18
75039;BME280;63609;49.992;14.512;2024-02-14T07:08:35;98538.31;;;1.98;65.60
75039;BME280;63609;49.992;14.512;2024-02-14T07:11:02;98541.88;;;1.66;66.36
75039;BME280;63609;49.992;14.512;2024-02-14T07:13:28;98539.50;;;1.61;66.52
75039;BME280;63609;49.992;14.512;2024-02-14T07:15:56;98546.44;;;1.62;66.54
75039;BME280;63609;49.992;14.512;2024-02-14T07:18:24;98545.13;;;1.87;66.40
75039;BME280;63609;49.992;14.512;2024-02-14T07:20:51;98543.25;;;1.73;66.33
75039;BME280;63609;49.992;14.512;2024-02-14T07:23:19;98545.88;;;1.89;65.92
75039;BME280;63609;49.992;14.512;2024-02-14T07:25:46;98554.38;;;1.78;66.27
75039;BME280;63609;49.992;14.512;2024-02-14T07:28:13;98548.44;;;2.06;65.48
75039;BME280;63609;49.992;14.512;2024-02-14T07:30:40;98556.16;;;1.93;65.34
75039;BME280;63609;49.992;14.512;2024-02-14T07:33:07;98558.78;;;1.93;65.42
75039;BME280;63609;49.992;14.512;2024-02-14T07:35:36;98565.00;;;1.77;66.09
75039;BME280;63609;49.992;14.512;2024-02-14T07:38:04;98559.28;;;1.84;65.82
75039;BME280;63609;49.992;14.512;2024-02-14T07:40:30;98559.47;;;1.81;65.92
75039;BME280;63609;49.992;14.512;2024-02-14T07:42:58;98554.94;;;1.99;65.43
75039;BME280;63609;49.992;14.512;2024-02-14T07:45:25;98554.91;;;2.00;65.55
75039;BME280;63609;49.992;14.512;2024-02-14T07:47:53;98554.63;;;2.05;65.46
75039;BME280;63609;49.992;14.512;2024-02-14T07:50:20;98558.25;;;2.34;64.71
75039;BME280;63609;49.992;14.512;2024-02-14T07:52:47;98555.25;;;2.40;64.65
75039;BME280;63609;49.992;14.512;2024-02-14T07:55:14;98548.53;;;2.64;63.81
75039;BME280;63609;49.992;14.512;2024-02-14T07:57:41;98552.63;;;2.24;65.53
75039;BME280;63609;49.992;14.512;2024-02-14T08:00:09;98546.03;;;2.17;65.16
75039;BME280;63609;49.992;14.512;2024-02-14T08:02:36;98550.13;;;2.07;65.51
75039;BME280;63609;49.992;14.512;2024-02-14T08:05:07;98543.78;;;2.25;65.36
75039;BME280;63609;49.992;14.512;2024-02-14T08:07:35;98541.78;;;2.15;65.82
75039;BME280;63609;49.992;14.512;2024-02-14T08:10:02;98546.53;;;2.54;65.57
75039;BME280;63609;49.992;14.512;2024-02-14T08:12:30;98540.75;;;2.33;65.13
75039;BME280;63609;49.992;14.512;2024-02-14T08:14:57;98546.81;;;2.49;64.90
75039;BME280;63609;49.992;14.512;2024-02-14T08:17:24;98541.91;;;2.43;64.42
75039;BME280;63609;49.992;14.512;2024-02-14T08:19:51;98553.75;;;2.66;64.78
75039;BME280;63609;49.992;14.512;2024-02-14T08:22:18;98549.66;;;2.90;63.39
75039;BME280;63609;49.992;14.512;2024-02-14T08:24:45;98546.28;;;2.58;64.02
75039;BME280;63609;49.992;14.512;2024-02-14T08:27:12;98545.97;;;2.93;64.01
75039;BME280;63609;49.992;14.512;2024-02-14T08:29:39;98540.50;;;2.82;63.63
75039;BME280;63609;49.992;14.512;2024-02-14T08:32:07;98543.13;;;2.82;63.36
75039;BME280;63609;49.992;14.512;2024-02-14T08:34:34;98538.91;;;2.93;63.35
75039;BME280;63609;49.992;14.512;2024-02-14T08:37:01;98539.28;;;2.87;63.54
75039;BME280;63609;49.992;14.512;2024-02-14T08:39:33;98525.63;;;2.81;63.66
75039;BME280;63609;49.992;14.512;2024-02-14T08:41:59;98529.88;;;2.97;63.29
75039;BME280;63609;49.992;14.512;2024-02-14T08:44:29;98526.75;;;2.91;63.07
75039;BME280;63609;49.992;14.512;2024-02-14T08:46:56;98523.69;;;2.98;63.36
75039;BME280;63609;49.992;14.512;2024-02-14T08:49:23;98523.66;;;2.84;63.87
75039;BME280;63609;49.992;14.512;2024-02-14T08:51:50;98514.78;;;2.71;63.67
75039;BME280;63609;49.992;14.512;2024-02-14T08:54:17;98523.59;;;3.00;63.43
75039;BME280;63609;49.992;14.512;2024-02-14T08:56:44;98517.84;;;3.08;62.45
75039;BME280;63609;49.992;14.512;2024-02-14T08:59:11;98520.94;;;3.28;62.79
75039;BME280;63609;49.992;14.512;2024-02-14T09:01:39;98522.56;;;3.31;61.84
75039;BME280;63609;49.992;14.512;2024-02-14T09:04:06;98517.94;;;3.49;62.06
75039;BME280;63609;49.992;14.512;2024-02-14T09:06:33;98522.75;;;3.42;62.47
75039;BME280;63609;49.992;14.512;2024-02-14T09:09:00;98517.03;;;3.62;61.90
75039;BME280;63609;49.992;14.512;2024-02-14T09:11:28;98519.28;;;3.97;61.07
75039;BME280;63609;49.992;14.512;2024-02-14T09:13:54;98521.19;;;3.81;61.06
75039;BME280;63609;49.992;14.512;2024-02-14T09:16:26;98523.47;;;3.73;61.46
75039;BME280;63609;49.992;14.512;2024-02-14T09:18:52;98523.00;;;3.52;61.78
75039;BME280;63609;49.992;14.512;2024-02-14T09:21:19;98519.81;;;3.47;61.97
75039;BME280;63609;49.992;14.512;2024-02-14T09:23:47;98520.81;;;3.58;61.37
75039;BME280;63609;49.992;14.512;2024-02-14T09:26:14;98524.94;;;4.05;60.60
75039;BME280;63609;49.992;14.512;2024-02-14T09:28:43;98520.13;;;4.24;59.34
75039;BME280;63609;49.992;14.512;2024-02-14T09:31:10;98509.59;;;4.37;59.92
75039;BME280;63609;49.992;14.512;2024-02-14T09:33:42;98521.81;;;4.26;60.32
75039;BME280;63609;49.992;14.512;2024-02-14T09:36:09;98525.88;;;4.31;59.66
75039;BME280;63609;49.992;14.512;2024-02-14T09:38:36;98527.28;;;4.49;58.96
75039;BME280;63609;49.992;14.512;2024-02-14T09:41:15;98531.25;;;4.30;59.61
75039;BME280;63609;49.992;14.512;2024-02-14T09:43:45;98527.81;;;4.94;58.51
75039;BME280;63609;49.992;14.512;2024-02-14T09:46:13;98525.00;;;4.70;59.51
75039;BME280;63609;49.992;14.512;2024-02-14T09:48:45;98524.94;;;5.10;59.07
75039;BME280;63609;49.992;14.512;2024-02-14T09:51:12;98528.84;;;5.17;57.72
75039;BME280;63609;49.992;14.512;2024-02-14T09:53:41;98529.03;;;4.89;58.47
75039;BME280;63609;49.992;14.512;2024-02-14T09:56:11;98522.38;;;4.83;58.46
75039;BME280;63609;49.992;14.512;2024-02-14T09:58:40;98520.91;;;5.04;58.56
75039;BME280;63609;49.992;14.512;2024-02-14T10:01:08;98518.16;;;5.06;57.52
75039;BME280;63609;49.992;14.512;2024-02-14T10:03:35;98518.59;;;5.00;56.99
75039;BME280;63609;49.992;14.512;2024-02-14T10:06:03;98527.47;;;5.11;57.26
75039;BME280;63609;49.992;14.512;2024-02-14T10:08:32;98516.47;;;5.17;56.38
75039;BME280;63609;49.992;14.512;2024-02-14T10:10:59;98516.34;;;5.44;56.41
75039;BME280;63609;49.992;14.512;2024-02-14T10:13:27;98512.84;;;5.44;57.07
75039;BME280;63609;49.992;14.512;2024-02-14T10:15:55;98513.63;;;4.95;57.52
75039;BME280;63609;49.992;14.512;2024-02-14T10:18:22;98524.63;;;5.27;57.76
75039;BME280;63609;49.992;14.512;2024-02-14T10:20:56;98523.06;;;5.87;56.92
75039;BME280;63609;49.992;14.512;2024-02-14T10:23:23;98519.66;;;5.85;55.29
75039;BME280;63609;49.992;14.512;2024-02-14T10:25:53;98519.72;;;5.46;56.18
75039;BME280;63609;49.992;14.512;2024-02-14T10:28:20;98518.50;;;5.27;57.09
75039;BME280;63609;49.992;14.512;2024-02-14T10:30:58;98526.44;;;5.89;55.12
75039;BME280;63609;49.992;14.512;2024-02-14T10:33:29;98528.69;;;6.43;54.14
75039;BME280;63609;49.992;14.512;2024-02-14T10:35:57;98530.47;;;6.42;53.50
75039;BME280;63609;49.992;14.512;2024-02-14T10:38:31;98521.34;;;6.22;54.62
75039;BME280;63609;49.992;14.512;2024-02-14T10:41:02;98514.91;;;6.14;54.86
75039;BME280;63609;49.992;14.512;2024-02-14T10:43:31;98518.69;;;6.22;54.86
75039;BME280;63609;49.992;14.512;2024-02-14T10:46:00;98512.41;;;6.47;54.82
75039;BME280;63609;49.992;14.512;2024-02-14T10:48:34;98513.44;;;6.57;54.24
75039;BME280;63609;49.992;14.512;2024-02-14T10:51:05;98518.69;;;6.81;54.14
75039;BME280;63609;49.992;14.512;2024-02-14T10:53:35;98510.84;;;6.80;54.60
75039;BME280;63609;49.992;14.512;2024-02-14T10:56:04;98513.22;;;6.36;53.51
75039;BME280;63609;49.992;14.512;2024-02-14T10:58:33;98523.75;;;6.49;53.63
75039;BME280;63609;49.992;14.512;2024-02-14T11:01:01;98511.78;;;6.67;52.98
75039;BME280;63609;49.992;14.512;2024-02-14T11:03:29;98505.84;;;6.64;54.28
75039;BME280;63609;49.992;14.512;2024-02-14T11:06:01;98506.44;;;7.02;53.00
75039;BME280;63609;49.992;14.512;2024-02-14T11:08:31;98496.38;;;7.30;53.46
75039;BME280;63609;49.992;14.512;2024-02-14T11:11:00;98494.50;;;7.19;53.44
75039;BME280;63609;49.992;14.512;2024-02-14T11:13:29;98493.53;;;6.98;54.24
75039;BME280;63609;49.992;14.512;2024-02-14T11:16:03;98495.50;;;7.29;53.24
75039;BME280;63609;49.992;14.512;2024-02-14T11:18:31;98497.31;;;7.62;51.64
75039;BME280;63609;49.992;14.512;2024-02-14T11:21:15;98489.34;;;7.51;51.60
75039;BME280;63609;49.992;14.512;2024-02-14T11:23:53;98482.09;;;7.42;51.81
75039;BME280;63609;49.992;14.512;2024-02-14T11:26:25;98472.47;;;7.30;52.81
75039;BME280;63609;49.992;14.512;2024-02-14T11:29:00;98479.28;;;7.10;53.77
75039;BME280;63609;49.992;14.512;2024-02-14T11:31:34;98467.13;;;7.63;52.22
75039;BME280;63609;49.992;14.512;2024-02-14T11:34:05;98474.44;;;7.15;51.75
75039;BME280;63609;49.992;14.512;2024-02-14T11:36:32;98466.41;;;7.28;52.15
75039;BME280;63609;49.992;14.512;2024-02-14T11:39:03;98470.34;;;7.11;52.35
75039;BME280;63609;49.992;14.512;2024-02-14T11:41:35;98465.31;;;7.53;52.71
75039;BME280;63609;49.992;14.512;2024-02-14T11:44:02;98467.19;;;7.84;52.17
75039;BME280;63609;49.992;14.512;2024-02-14T11:46:34;98466.47;;;7.82;51.78
75039;BME280;63609;49.992;14.512;2024-02-14T11:49:03;98459.59;;;7.91;52.83
75039;BME280;63609;49.992;14.512;2024-02-14T11:51:33;98457.31;;;7.86;51.44
75039;BME280;63609;49.992;14.512;2024-02-14T11:54:02;98453.94;;;7.73;52.44
75039;BME280;63609;49.992;14.512;2024-02-14T11:56:38;98460.59;;;7.68;52.87
75039;BME280;63609;49.992;14.512;2024-02-14T11:59:06;98466.72;;;7.79;53.51
75039;BME280;63609;49.992;14.512;2024-02-14T12:01:35;98460.03;;;7.30;53.40
75039;BME280;63609;49.992;14.512;2024-02-14T12:04:06;98457.34;;;7.42;55.11
75039;BME280;63609;49.992;14.512;2024-02-14T12:06:39;98451.06;;;7.43;54.76
75039;BME280;63609;49.992;14.512;2024-02-14T12:09:08;98445.88;;;7.41;55.53
75039;BME280;63609;49.992;14.512;2024-02-14T12:11:36;98447.69;;;7.41;55.06
75039;BME280;63609;49.992;14.512;2024-02-14T12:14:09;98455.06;;;7.37;55.14
75039;BME280;63609;49.992;14.512;2024-02-14T12:16:37;98445.63;;;7.67;54.79
75039;BME280;63609;49.992;14.512;2024-02-14T12:19:17;98434.50;;;7.50;54.83
75039;BME280;63609;49.992;14.512;2024-02-14T12:21:45;98433.59;;;8.26;54.47
75039;BME280;63609;49.992;14.512;2024-02-14T12:24:13;98418.78;;;8.34;53.40
75039;BME280;63609;49.992;14.512;2024-02-14T12:26:42;98420.94;;;8.19;53.15
75039;BME280;63609;49.992;14.512;2024-02-14T12:29:11;98418.28;;;8.19;52.74
75039;BME280;63609;49.992;14.512;2024-02-14T12:31:39;98421.72;;;7.99;54.10
75039;BME280;63609;49.992;14.512;2024-02-14T12:34:06;98428.59;;;8.01;54.30
75039;BME280;63609;49.992;14.512;2024-02-14T12:36:34;98429.25;;;7.82;54.02
75039;BME280;63609;49.992;14.512;2024-02-14T12:39:02;98431.34;;;8.11;54.07
75039;BME280;63609;49.992;14.512;2024-02-14T12:41:30;98441.00;;;8.44;54.31
75039;BME280;63609;49.992;14.512;2024-02-14T12:43:58;98413.06;;;8.17;53.83
75039;BME280;63609;49.992;14.512;2024-02-14T12:46:27;98425.69;;;8.04;54.37
75039;BME280;63609;49.992;14.512;2024-02-14T12:48:54;98429.56;;;8.00;55.15
75039;BME280;63609;49.992;14.512;2024-02-14T12:51:21;98440.00;;;8.45;53.92
75039;BME280;63609;49.992;14.512;2024-02-14T12:53:48;98437.38;;;8.13;55.62
75039;BME280;63609;49.992;14.512;2024-02-14T12:56:16;98436.78;;;8.09;54.25
75039;BME280;63609;49.992;14.512;2024-02-14T12:58:43;98439.75;;;7.95;54.79
75039;BME280;63609;49.992;14.512;2024-02-14T13:01:11;98444.88;;;8.19;54.73
75039;BME280;63609;49.992;14.512;2024-02-14T13:03:38;98431.78;;;8.27;55.98
75039;BME280;63609;49.992;14.512;2024-02-14T13:06:06;98441.31;;;7.98;55.36